Time,TemperatureF,DewpointF,PressureIn,WindDirection,WindDirectionDegrees,WindSpeedMPH,WindSpeedGustMPH,Humidity,HourlyPrecipIn,Conditions,Clouds,dailyrainin,SoftwareType,DateUTC
2013-08-03 00:02:00,69.3,58.7,29.97,East,90,0.0,0.0,69,0.00,CLR,BKN,0.00,WeatherDisplay:10.37,2013-08-02 22:02:00,
2013-08-03 00:07:00,69.3,58.7,29.97,East,90,0.0,0.0,69,0.00,CLR,BKN,0.00,WeatherDisplay:10.37,2013-08-02 22:07:00,
2013-08-03 00:12:00,68.9,58.7,29.97,West,270,0.0,0.0,70,0.00,CLR,BKN,0.00,WeatherDisplay:10.37,2013-08-02 22:12:00,
2013-08-03 00:17:00,68.9,58.7,29.97,West,270,0.0,0.0,70,0.00,CLR,BKN,0.00,WeatherDisplay:10.37,2013-08-02 22:17:00,
2013-08-03 00:22:00,68.7,58.9,29.96,West,270,1.2,0.0,71,0.00,CLR,BKN,0.00,WeatherDisplay:10.37,2013-08-02 22:22:00,
2013-08-03 00:27:00,68.5,58.8,29.97,West,270,1.2,0.0,71,0.00,CLR,BKN,0.00,WeatherDisplay:10.37,2013-08-02 22:27:00,
2013-08-03 00:32:00,68.5,59.2,29.97,NW,315,0.0,0.0,72,0.00,CLR,BKN,0.00,WeatherDisplay:10.37,2013-08-02 22:32:00,
2013-08-03 00:37:00,68.4,59.0,29.97,NW,315,0.0,0.0,72,0.00,CLR,BKN,0.00,WeatherDisplay:10.37,2013-08-02 22:37:00,
2013-08-03 00:42:00,68.2,58.8,29.96,NW,315,0.0,0.0,72,0.00,CLR,BKN,0.00,WeatherDisplay:10.37,2013-08-02 22:42:00,
2013-08-03 00:47:00,68.2,58.8,29.96,NW,315,0.0,0.0,72,0.00,CLR,BKN,0.00,WeatherDisplay:10.37,2013-08-02 22:47:00,
2013-08-03 00:52:00,68.0,59.0,29.96,NW,315,0.0,0.0,73,0.00,CLR,BKN,0.00,WeatherDisplay:10.37,2013-08-02 22:52:00,
2013-08-03 00:57:00,67.8,59.2,29.97,NW,315,1.6,1.6,74,0.00,CLR,BKN,0.00,WeatherDisplay:10.37,2013-08-02 22:57:00,
2013-08-03 01:02:00,67.8,59.6,29.97,NW,315,1.2,0.0,75,0.00,CLR,BKN,0.00,WeatherDisplay:10.37,2013-08-02 23:02:00,
2013-08-03 01:07:00,67.6,59.8,29.97,NW,315,1.2,0.0,76,0.00,CLR,BKN,0.00,WeatherDisplay:10.37,2013-08-02 23:07:00,
2013-08-03 01:12:00,67.3,59.5,29.97,East,90,1.6,1.6,76,0.00,CLR,BKN,0.00,WeatherDisplay:10.37,2013-08-02 23:12:00,
2013-08-03 01:17:00,67.3,59.5,29.97,East,90,1.2,0.0,76,0.00,CLR,BKN,0.00,WeatherDisplay:10.37,2013-08-02 23:17:00,
2013-08-03 01:22:00,67.1,59.3,29.97,SE,135,1.2,1.2,76,0.00,CLR,BKN,0.00,WeatherDisplay:10.37,2013-08-02 23:22:00,
2013-08-03 01:27:00,66.7,58.6,29.97,East,90,1.2,0.0,75,0.00,CLR,BKN,0.00,WeatherDisplay:10.37,2013-08-02 23:27:00,
2013-08-03 01:32:00,66.6,58.4,29.97,East,90,0.7,0.0,75,0.00,CLR,BKN,0.00,WeatherDisplay:10.37,2013-08-02 23:32:00,
2013-08-03 01:37:00,66.2,58.0,29.97,South,180,1.2,0.0,75,0.00,CLR,BKN,0.00,WeatherDisplay:10.37,2013-08-02 23:37:00,
2013-08-03 01:42:00,66.2,58.0,29.97,South,180,1.6,0.0,75,0.00,CLR,BKN,0.00,WeatherDisplay:10.37,2013-08-02 23:42:00,
2013-08-03 01:47:00,66.0,58.6,29.97,South,180,1.2,0.0,77,0.00,CLR,BKN,0.00,WeatherDisplay:10.37,2013-08-02 23:47:00,
2013-08-03 01:52:00,65.8,58.4,29.97,South,180,1.2,0.0,77,0.00,CLR,BKN,0.00,WeatherDisplay:10.37,2013-08-02 23:52:00,
2013-08-03 01:57:00,65.8,58.8,29.96,South,180,0.0,0.0,78,0.00,CLR,BKN,0.00,WeatherDisplay:10.37,2013-08-02 23:57:00,
2013-08-03 02:02:00,65.8,59.1,29.96,South,180,0.0,0.0,79,0.00,CLR,BKN,0.00,WeatherDisplay:10.37,2013-08-03 00:02:00,
2013-08-03 02:07:00,65.8,59.1,29.97,South,180,0.0,0.0,79,0.00,CLR,BKN,0.00,WeatherDisplay:10.37,2013-08-03 00:07:00,
2013-08-03 02:12:00,65.7,59.3,29.96,South,180,0.0,0.0,80,0.00,CLR,BKN,0.00,WeatherDisplay:10.37,2013-08-03 00:12:00,
2013-08-03 02:17:00,65.5,59.1,29.96,South,180,0.0,0.0,80,0.00,CLR,BKN,0.00,WeatherDisplay:10.37,2013-08-03 00:17:00,
2013-08-03 02:22:00,65.5,59.1,29.97,East,90,1.6,1.6,80,0.00,CLR,BKN,0.00,WeatherDisplay:10.37,2013-08-03 00:22:00,
2013-08-03 02:27:00,65.3,58.6,29.96,East,90,1.2,0.0,79,0.00,CLR,BKN,0.00,WeatherDisplay:10.37,2013-08-03 00:27:00,
2013-08-03 02:32:00,65.1,58.4,29.96,East,90,0.0,0.0,79,0.00,CLR,BKN,0.00,WeatherDisplay:10.37,2013-08-03 00:32:00,
2013-08-03 02:37:00,64.8,58.1,29.96,East,90,0.0,0.0,79,0.00,CLR,BKN,0.00,WeatherDisplay:10.37,2013-08-03 00:37:00,
2013-08-03 02:42:00,64.6,57.9,29.96,East,90,0.0,0.0,79,0.00,CLR,BKN,0.00,WeatherDisplay:10.37,2013-08-03 00:42:00,
2013-08-03 02:47:00,64.4,57.7,29.96,East,90,0.0,0.0,79,0.00,CLR,BKN,0.00,WeatherDisplay:10.37,2013-08-03 00:47:00,
2013-08-03 02:52:00,64.2,57.6,29.96,East,90,0.0,0.0,79,0.00,CLR,BKN,0.00,WeatherDisplay:10.37,2013-08-03 00:52:00,
2013-08-03 02:57:00,64.2,57.6,29.96,East,90,0.0,0.0,79,0.00,CLR,BKN,0.00,WeatherDisplay:10.37,2013-08-03 00:57:00,
2013-08-03 03:02:00,64.0,57.4,29.96,East,90,1.2,0.0,79,0.00,CLR,BKN,0.00,WeatherDisplay:10.37,2013-08-03 01:02:00,
2013-08-03 03:08:00,64.0,57.4,29.96,East,90,1.2,0.0,79,0.00,CLR,BKN,0.00,WeatherDisplay:10.37,2013-08-03 01:08:00,
2013-08-03 03:13:00,63.9,57.2,29.96,East,90,1.2,0.0,79,0.00,CLR,BKN,0.00,WeatherDisplay:10.37,2013-08-03 01:13:00,
2013-08-03 03:18:00,63.7,57.0,29.96,East,90,1.6,1.6,79,0.00,CLR,BKN,0.00,WeatherDisplay:10.37,2013-08-03 01:18:00,
2013-08-03 03:23:00,63.5,57.2,29.96,North,0,1.2,0.0,80,0.00,CLR,BKN,0.00,WeatherDisplay:10.37,2013-08-03 01:23:00,
2013-08-03 03:28:00,63.3,57.0,29.96,North,0,2.2,2.2,80,0.00,CLR,BKN,0.00,WeatherDisplay:10.37,2013-08-03 01:28:00,
2013-08-03 03:33:00,63.1,56.9,29.96,North,0,2.3,2.3,80,0.00,CLR,BKN,0.00,WeatherDisplay:10.37,2013-08-03 01:33:00,
2013-08-03 03:38:00,63.1,56.9,29.96,NE,45,1.6,1.6,80,0.00,CLR,BKN,0.00,WeatherDisplay:10.37,2013-08-03 01:38:00,
2013-08-03 03:43:00,63.1,56.9,29.96,East,90,1.6,0.0,80,0.00,CLR,BKN,0.00,WeatherDisplay:10.37,2013-08-03 01:43:00,
2013-08-03 03:48:00,63.1,56.9,29.96,East,90,1.6,1.6,80,0.00,CLR,BKN,0.00,WeatherDisplay:10.37,2013-08-03 01:48:00,
2013-08-03 03:53:00,63.0,57.0,29.96,East,90,2.2,2.2,81,0.00,CLR,BKN,0.00,WeatherDisplay:10.37,2013-08-03 01:53:00,
2013-08-03 03:58:00,62.8,56.9,29.96,East,90,1.6,1.6,81,0.00,CLR,BKN,0.00,WeatherDisplay:10.37,2013-08-03 01:58:00,
2013-08-03 04:03:00,62.8,56.9,29.95,NE,45,1.2,0.0,81,0.00,CLR,BKN,0.00,WeatherDisplay:10.37,2013-08-03 02:03:00,
2013-08-03 04:08:00,62.6,56.7,29.96,East,90,1.2,1.2,81,0.00,CLR,BKN,0.00,WeatherDisplay:10.37,2013-08-03 02:08:00,
2013-08-03 04:13:00,62.4,56.9,29.96,East,90,2.3,2.3,82,0.00,CLR,BKN,0.00,WeatherDisplay:10.37,2013-08-03 02:13:00,
2013-08-03 04:18:00,62.2,56.7,29.96,East,90,1.6,1.6,82,0.00,CLR,BKN,0.00,WeatherDisplay:10.37,2013-08-03 02:18:00,
2013-08-03 04:23:00,62.1,56.5,29.96,East,90,1.2,0.0,82,0.00,CLR,BKN,0.00,WeatherDisplay:10.37,2013-08-03 02:23:00,
2013-08-03 04:28:00,62.1,56.5,29.95,East,90,1.2,0.0,82,0.00,CLR,BKN,0.00,WeatherDisplay:10.37,2013-08-03 02:28:00,
2013-08-03 04:33:00,61.9,56.3,29.95,NE,45,1.6,1.6,82,0.00,CLR,BKN,0.00,WeatherDisplay:10.37,2013-08-03 02:33:00,
2013-08-03 04:35:00,61.9,56.3,29.96,ENE,59,1.0,2.0,82,0.00,CLR,BKN,0.00,WeatherDisplay:10.37,2013-08-03 02:35:00,
2013-08-03 04:40:00,61.9,56.3,29.96,NE,45,1.0,2.0,82,0.00,CLR,BKN,0.00,WeatherDisplay:10.37,2013-08-03 02:40:00,
2013-08-03 04:45:00,61.9,56.3,29.96,NE,45,3.5,3.5,82,0.00,CLR,BKN,0.00,WeatherDisplay:10.37,2013-08-03 02:45:00,
2013-08-03 04:50:00,61.7,56.5,29.96,North,0,2.3,2.3,83,0.00,CLR,BKN,0.00,WeatherDisplay:10.37,2013-08-03 02:50:00,
2013-08-03 04:55:00,61.7,56.5,29.96,NE,45,2.3,2.3,83,0.00,CLR,BKN,0.00,WeatherDisplay:10.37,2013-08-03 02:55:00,
2013-08-03 05:00:00,61.7,56.5,29.96,NE,45,1.2,0.0,83,0.00,CLR,BKN,0.00,WeatherDisplay:10.37,2013-08-03 03:00:00,
2013-08-03 05:05:00,61.7,56.5,29.96,NE,45,0.0,0.0,83,0.00,CLR,BKN,0.00,WeatherDisplay:10.37,2013-08-03 03:05:00,
2013-08-03 05:10:00,61.7,56.8,29.96,NE,45,0.0,0.0,84,0.00,CLR,BKN,0.00,WeatherDisplay:10.37,2013-08-03 03:10:00,
2013-08-03 05:15:00,61.7,56.8,29.96,NE,45,0.0,0.0,84,0.00,CLR,BKN,0.00,WeatherDisplay:10.37,2013-08-03 03:15:00,
2013-08-03 05:20:00,61.7,56.8,29.96,NE,45,1.2,0.0,84,0.00,CLR,BKN,0.00,WeatherDisplay:10.37,2013-08-03 03:20:00,
2013-08-03 05:25:00,61.5,56.6,29.97,NE,45,1.2,0.0,84,0.00,CLR,BKN,0.00,WeatherDisplay:10.37,2013-08-03 03:25:00,
2013-08-03 05:30:00,61.5,56.6,29.96,NE,45,1.2,0.0,84,0.00,CLR,BKN,0.00,WeatherDisplay:10.37,2013-08-03 03:30:00,
2013-08-03 05:35:00,61.5,56.6,29.96,SE,135,1.2,0.0,84,0.00,CLR,BKN,0.00,WeatherDisplay:10.37,2013-08-03 03:35:00,
2013-08-03 05:40:00,61.5,56.6,29.96,NE,45,1.2,0.0,84,0.00,CLR,BKN,0.00,WeatherDisplay:10.37,2013-08-03 03:40:00,
2013-08-03 05:45:00,61.3,56.5,29.96,NW,315,1.2,0.0,84,0.00,CLR,BKN,0.00,WeatherDisplay:10.37,2013-08-03 03:45:00,
2013-08-03 05:50:00,61.3,56.5,29.97,East,90,1.2,0.0,84,0.00,CLR,BKN,0.00,WeatherDisplay:10.37,2013-08-03 03:50:00,
2013-08-03 05:55:00,61.3,56.5,29.96,SE,135,1.6,1.6,84,0.00,CLR,BKN,0.00,WeatherDisplay:10.37,2013-08-03 03:55:00,
2013-08-03 06:00:00,61.3,56.5,29.96,East,90,1.2,0.0,84,0.00,CLR,BKN,0.00,WeatherDisplay:10.37,2013-08-03 04:00:00,
2013-08-03 06:01:00,61.3,56.5,29.96,East,90,1.2,0.0,84,0.00,CLR,BKN,0.00,WeatherDisplay:10.37,2013-08-03 04:01:00,
2013-08-03 06:02:00,61.3,56.5,29.97,East,90,1.2,0.0,84,0.00,CLR,BKN,0.00,WeatherDisplay:10.37,2013-08-03 04:02:00,
2013-08-03 06:04:00,61.3,56.5,29.97,East,90,1.2,0.0,84,0.00,CLR,BKN,0.00,WeatherDisplay:10.37,2013-08-03 04:04:00,
2013-08-03 06:05:00,61.3,56.5,29.96,East,90,1.2,0.0,84,0.00,CLR,BKN,0.00,WeatherDisplay:10.37,2013-08-03 04:05:00,
2013-08-03 06:09:00,61.3,56.8,29.97,SE,135,1.2,0.0,85,0.00,CLR,BKN,0.00,WeatherDisplay:10.37,2013-08-03 04:09:00,
2013-08-03 06:14:00,61.5,57.0,29.97,SE,135,1.2,0.0,85,0.00,CLR,BKN,0.00,WeatherDisplay:10.37,2013-08-03 04:14:00,
2013-08-03 06:19:00,61.7,57.1,29.97,ESE,112,1.2,0.0,85,0.00,CLR,BKN,0.00,WeatherDisplay:10.37,2013-08-03 04:19:00,
2013-08-03 06:24:00,62.1,57.5,29.98,East,90,1.2,0.0,85,0.00,CLR,BKN,0.00,WeatherDisplay:10.37,2013-08-03 04:24:00,
2013-08-03 06:29:00,62.2,57.7,29.97,East,90,0.0,0.0,85,0.00,CLR,BKN,0.00,WeatherDisplay:10.37,2013-08-03 04:29:00,
2013-08-03 06:34:00,62.6,57.7,29.98,East,90,1.2,0.0,84,0.00,CLR,BKN,0.00,WeatherDisplay:10.37,2013-08-03 04:34:00,
2013-08-03 06:39:00,62.8,57.9,29.97,NW,315,0.0,0.0,84,0.00,CLR,BKN,0.00,WeatherDisplay:10.37,2013-08-03 04:39:00,
2013-08-03 06:44:00,63.1,58.2,29.97,North,0,1.6,1.6,84,0.00,CLR,BKN,0.00,WeatherDisplay:10.37,2013-08-03 04:44:00,
2013-08-03 06:49:00,63.7,58.4,29.97,North,0,3.1,3.1,83,0.00,CLR,BKN,0.00,WeatherDisplay:10.37,2013-08-03 04:49:00,
2013-08-03 06:54:00,64.2,58.9,29.97,NE,45,3.5,3.5,83,0.00,CLR,BKN,0.00,WeatherDisplay:10.37,2013-08-03 04:54:00,
2013-08-03 06:59:00,64.8,59.5,29.97,ENE,68,2.3,2.3,83,0.00,CLR,BKN,0.00,WeatherDisplay:10.37,2013-08-03 04:59:00,
2013-08-03 07:04:00,65.3,60.0,29.97,NE,45,1.6,0.0,83,0.00,CLR,BKN,0.00,WeatherDisplay:10.37,2013-08-03 05:04:00,
2013-08-03 07:09:00,65.8,60.5,29.98,East,90,1.2,0.0,83,0.00,CLR,BKN,0.00,WeatherDisplay:10.37,2013-08-03 05:09:00,
2013-08-03 07:14:00,66.2,60.5,29.98,North,0,1.2,0.0,82,0.00,CLR,BKN,0.00,WeatherDisplay:10.37,2013-08-03 05:14:00,
2013-08-03 07:19:00,67.1,61.1,29.97,East,90,2.3,2.3,81,0.00,CLR,BKN,0.00,WeatherDisplay:10.37,2013-08-03 05:19:00,
2013-08-03 07:24:00,67.6,61.6,29.98,SE,135,1.2,0.0,81,0.00,CLR,BKN,0.00,WeatherDisplay:10.37,2013-08-03 05:24:00,
2013-08-03 07:29:00,68.4,61.6,29.97,East,90,1.2,0.0,79,0.00,CLR,BKN,0.00,WeatherDisplay:10.37,2013-08-03 05:29:00,
2013-08-03 07:34:00,68.9,61.8,29.97,NW,315,1.2,0.0,78,0.00,CLR,BKN,0.00,WeatherDisplay:10.37,2013-08-03 05:34:00,
2013-08-03 07:39:00,69.6,62.1,29.97,NE,45,1.2,0.0,77,0.00,CLR,BKN,0.00,WeatherDisplay:10.37,2013-08-03 05:39:00,
2013-08-03 07:44:00,70.2,61.9,29.97,North,0,1.2,0.0,75,0.00,CLR,BKN,0.00,WeatherDisplay:10.37,2013-08-03 05:44:00,
2013-08-03 07:49:00,70.9,62.2,29.98,South,180,1.2,0.0,74,0.00,CLR,BKN,0.00,WeatherDisplay:10.37,2013-08-03 05:49:00,
2013-08-03 07:54:00,72.0,62.8,29.97,South,180,1.2,0.0,73,0.00,CLR,BKN,0.00,WeatherDisplay:10.37,2013-08-03 05:54:00,
2013-08-03 07:59:00,72.5,63.0,29.98,SW,225,1.2,0.0,72,0.00,CLR,BKN,0.00,WeatherDisplay:10.37,2013-08-03 05:59:00,
2013-08-03 08:04:00,72.5,63.0,29.97,SW,225,1.2,0.0,72,0.00,CLR,BKN,0.00,WeatherDisplay:10.37,2013-08-03 06:04:00,
2013-08-03 08:09:00,73.9,63.9,29.97,NE,45,1.6,1.6,71,0.00,CLR,BKN,0.00,WeatherDisplay:10.37,2013-08-03 06:09:00,
2013-08-03 08:15:00,74.7,63.8,29.98,East,88,1.0,2.0,69,0.00,CLR,BKN,0.00,WeatherDisplay:10.37,2013-08-03 06:15:00,
2013-08-03 08:20:00,75.2,63.4,29.98,NNE,30,0.0,2.0,67,0.00,CLR,BKN,0.00,WeatherDisplay:10.37,2013-08-03 06:20:00,
2013-08-03 08:25:00,75.9,64.6,29.98,NW,315,3.5,0.0,68,0.00,CLR,BKN,0.00,WeatherDisplay:10.37,2013-08-03 06:25:00,
2013-08-03 08:30:00,76.5,65.1,29.98,NW,315,3.5,3.5,68,0.00,CLR,BKN,0.00,WeatherDisplay:10.37,2013-08-03 06:30:00,
2013-08-03 08:35:00,76.8,65.0,29.97,NW,315,3.5,3.5,67,0.00,CLR,BKN,0.00,WeatherDisplay:10.37,2013-08-03 06:35:00,
2013-08-03 08:40:00,77.2,64.9,29.98,NW,315,3.5,3.5,66,0.00,CLR,BKN,0.00,WeatherDisplay:10.37,2013-08-03 06:40:00,
2013-08-03 08:45:00,77.7,65.5,29.98,NNE,22,4.6,4.6,66,0.00,CLR,BKN,0.00,WeatherDisplay:10.37,2013-08-03 06:45:00,
2013-08-03 08:50:00,78.1,65.4,29.98,NW,315,3.5,3.5,65,0.00,CLR,BKN,0.00,WeatherDisplay:10.37,2013-08-03 06:50:00,
2013-08-03 08:55:00,78.4,65.2,29.98,North,0,6.0,6.0,64,0.00,CLR,BKN,0.00,WeatherDisplay:10.37,2013-08-03 06:55:00,
2013-08-03 09:01:00,79.0,64.8,29.98,North,0,6.0,6.0,62,0.00,CLR,BKN,0.00,WeatherDisplay:10.37,2013-08-03 07:01:00,
2013-08-03 09:06:00,79.5,65.4,29.99,North,0,5.8,5.8,62,0.00,CLR,BKN,0.00,WeatherDisplay:10.37,2013-08-03 07:06:00,
2013-08-03 09:12:00,79.9,65.2,29.99,North,0,6.9,6.9,61,0.00,CLR,BKN,0.00,WeatherDisplay:10.37,2013-08-03 07:12:00,
2013-08-03 09:17:00,80.4,65.3,29.98,North,0,5.8,5.8,60,0.00,CLR,BKN,0.00,WeatherDisplay:10.37,2013-08-03 07:17:00,
2013-08-03 09:22:00,80.8,64.6,29.98,North,0,5.8,5.8,58,0.00,CLR,BKN,0.00,WeatherDisplay:10.37,2013-08-03 07:22:00,
2013-08-03 09:27:00,81.3,65.1,29.99,NW,315,4.6,4.6,58,0.00,CLR,BKN,0.00,WeatherDisplay:10.37,2013-08-03 07:27:00,
2013-08-03 09:32:00,81.9,65.6,29.99,NW,315,5.4,5.4,58,0.00,CLR,BKN,0.00,WeatherDisplay:10.37,2013-08-03 07:32:00,
2013-08-03 09:37:00,82.4,65.6,29.99,NW,315,4.6,4.6,57,0.00,CLR,BKN,0.00,WeatherDisplay:10.37,2013-08-03 07:37:00,
2013-08-03 09:42:00,82.8,65.5,29.98,West,270,3.5,3.5,56,0.00,CLR,BKN,0.00,WeatherDisplay:10.37,2013-08-03 07:42:00,
2013-08-03 09:47:00,83.3,66.0,29.98,North,0,3.5,3.5,56,0.00,CLR,BKN,0.00,WeatherDisplay:10.37,2013-08-03 07:47:00,
2013-08-03 09:52:00,84.0,65.6,29.98,West,270,3.5,3.5,54,0.00,CLR,BKN,0.00,WeatherDisplay:10.37,2013-08-03 07:52:00,
2013-08-03 09:57:00,84.4,64.8,29.98,North,0,4.6,4.6,52,0.00,CLR,BKN,0.00,WeatherDisplay:10.37,2013-08-03 07:57:00,
2013-08-03 10:02:00,84.9,64.8,29.97,West,270,3.5,3.5,51,0.00,CLR,BKN,0.00,WeatherDisplay:10.37,2013-08-03 08:02:00,
2013-08-03 10:07:00,85.6,64.3,29.98,SE,135,3.5,3.5,49,0.00,CLR,BKN,0.00,WeatherDisplay:10.37,2013-08-03 08:07:00,
2013-08-03 10:12:00,86.0,64.6,29.98,West,270,3.5,3.5,49,0.00,CLR,BKN,0.00,WeatherDisplay:10.37,2013-08-03 08:12:00,
2013-08-03 10:17:00,86.4,63.1,29.97,NE,45,4.6,4.6,46,0.00,CLR,BKN,0.00,WeatherDisplay:10.37,2013-08-03 08:17:00,
2013-08-03 10:22:00,86.5,62.0,29.98,NE,45,4.5,4.5,44,0.00,CLR,BKN,0.00,WeatherDisplay:10.37,2013-08-03 08:22:00,
2013-08-03 10:27:00,86.7,62.8,29.98,NW,315,4.6,4.6,45,0.00,CLR,BKN,0.00,WeatherDisplay:10.37,2013-08-03 08:27:00,
2013-08-03 10:32:00,87.3,62.7,29.98,NNW,338,3.5,3.5,44,0.00,CLR,BKN,0.00,WeatherDisplay:10.37,2013-08-03 08:32:00,
2013-08-03 10:37:00,87.4,63.5,29.98,NW,315,5.8,5.8,45,0.00,CLR,BKN,0.00,WeatherDisplay:10.37,2013-08-03 08:37:00,
2013-08-03 10:42:00,87.8,63.2,29.98,NW,315,5.8,5.8,44,0.00,CLR,BKN,0.00,WeatherDisplay:10.37,2013-08-03 08:42:00,
2013-08-03 10:47:00,87.8,63.8,29.97,West,270,4.6,4.6,45,0.00,CLR,BKN,0.00,WeatherDisplay:10.37,2013-08-03 08:47:00,
2013-08-03 10:52:00,88.2,64.1,29.97,West,270,5.8,5.8,45,0.00,CLR,BKN,0.00,WeatherDisplay:10.37,2013-08-03 08:52:00,
2013-08-03 10:57:00,88.2,63.5,29.97,NW,315,6.9,6.9,44,0.00,CLR,BKN,0.00,WeatherDisplay:10.37,2013-08-03 08:57:00,
2013-08-03 11:02:00,88.5,63.2,29.97,NW,315,5.8,5.8,43,0.00,CLR,BKN,0.00,WeatherDisplay:10.37,2013-08-03 09:02:00,
2013-08-03 11:07:00,88.9,63.5,29.97,North,0,5.4,5.4,43,0.00,CLR,BKN,0.00,WeatherDisplay:10.37,2013-08-03 09:07:00,
2013-08-03 11:12:00,89.4,63.3,29.97,NW,315,3.5,3.5,42,0.00,CLR,BKN,0.00,WeatherDisplay:10.37,2013-08-03 09:12:00,
2013-08-03 11:17:00,90.0,63.1,29.97,West,270,5.4,5.4,41,0.00,CLR,BKN,0.00,WeatherDisplay:10.37,2013-08-03 09:17:00,
2013-08-03 11:22:00,90.0,63.1,29.97,West,270,4.6,4.6,41,0.00,CLR,BKN,0.00,WeatherDisplay:10.37,2013-08-03 09:22:00,
2013-08-03 11:27:00,90.3,62.7,29.97,West,270,4.6,4.6,40,0.00,CLR,BKN,0.00,WeatherDisplay:10.37,2013-08-03 09:27:00,
2013-08-03 11:32:00,90.5,62.9,29.97,West,270,4.6,4.6,40,0.00,CLR,BKN,0.00,WeatherDisplay:10.37,2013-08-03 09:32:00,
2013-08-03 11:37:00,90.9,63.2,29.96,NW,315,4.5,4.5,40,0.00,CLR,BKN,0.00,WeatherDisplay:10.37,2013-08-03 09:37:00,
2013-08-03 11:42:00,91.2,62.8,29.96,NE,45,4.6,4.6,39,0.00,CLR,BKN,0.00,WeatherDisplay:10.37,2013-08-03 09:42:00,
2013-08-03 11:47:00,91.8,64.7,29.96,NW,315,6.9,6.9,41,0.00,CLR,BKN,0.00,WeatherDisplay:10.37,2013-08-03 09:47:00,
2013-08-03 11:52:00,92.3,63.0,29.96,NE,45,4.6,4.6,38,0.00,CLR,BKN,0.00,WeatherDisplay:10.37,2013-08-03 09:52:00,
2013-08-03 11:57:00,92.7,63.3,29.96,North,0,3.8,3.8,38,0.00,CLR,BKN,0.00,WeatherDisplay:10.37,2013-08-03 09:57:00,
2013-08-03 12:02:00,93.0,62.9,29.95,NW,315,5.8,5.8,37,0.00,CLR,BKN,0.00,WeatherDisplay:10.37,2013-08-03 10:02:00,
2013-08-03 12:07:00,93.0,62.9,29.96,NW,315,5.8,5.8,37,0.00,CLR,BKN,0.00,WeatherDisplay:10.37,2013-08-03 10:07:00,
2013-08-03 12:12:00,93.4,61.6,29.96,West,270,5.8,5.8,35,0.00,CLR,BKN,0.00,WeatherDisplay:10.37,2013-08-03 10:12:00,
2013-08-03 12:17:00,93.7,62.8,29.95,West,270,5.8,5.8,36,0.00,CLR,BKN,0.00,WeatherDisplay:10.37,2013-08-03 10:17:00,
2013-08-03 12:22:00,94.3,62.4,29.96,NNW,338,3.8,3.8,35,0.00,CLR,BKN,0.00,WeatherDisplay:10.37,2013-08-03 10:22:00,
2013-08-03 12:27:00,94.6,61.9,29.95,West,270,3.8,3.8,34,0.00,CLR,BKN,0.00,WeatherDisplay:10.37,2013-08-03 10:27:00,
2013-08-03 12:32:00,94.8,62.1,29.96,SE,135,5.8,5.8,34,0.00,CLR,BKN,0.00,WeatherDisplay:10.37,2013-08-03 10:32:00,
2013-08-03 12:37:00,95.0,61.4,29.96,North,0,4.6,4.6,33,0.00,CLR,BKN,0.00,WeatherDisplay:10.37,2013-08-03 10:37:00,
2013-08-03 12:42:00,95.4,61.7,29.95,North,0,5.8,5.8,33,0.00,CLR,BKN,0.00,WeatherDisplay:10.37,2013-08-03 10:42:00,
2013-08-03 12:47:00,95.5,61.9,29.95,NNE,22,5.4,5.4,33,0.00,CLR,BKN,0.00,WeatherDisplay:10.37,2013-08-03 10:47:00,
2013-08-03 12:52:00,95.7,62.9,29.95,North,0,5.8,5.8,34,0.00,CLR,BKN,0.00,WeatherDisplay:10.37,2013-08-03 10:52:00,
2013-08-03 12:57:00,95.4,61.7,29.95,SW,225,5.8,5.8,33,0.00,CLR,BKN,0.00,WeatherDisplay:10.37,2013-08-03 10:57:00,
2013-08-03 13:02:00,95.2,61.5,29.95,SSW,202,5.8,5.8,33,0.00,CLR,BKN,0.00,WeatherDisplay:10.37,2013-08-03 11:02:00,
2013-08-03 13:07:00,95.2,61.5,29.95,West,270,4.6,4.6,33,0.00,CLR,BKN,0.00,WeatherDisplay:10.37,2013-08-03 11:07:00,
2013-08-03 13:12:00,95.2,60.7,29.95,SW,225,4.6,4.6,32,0.00,CLR,BKN,0.00,WeatherDisplay:10.37,2013-08-03 11:12:00,
2013-08-03 13:17:00,95.4,60.8,29.95,NW,315,4.6,4.6,32,0.00,CLR,BKN,0.00,WeatherDisplay:10.37,2013-08-03 11:17:00,
2013-08-03 13:22:00,95.5,61.0,29.95,North,0,5.8,5.8,32,0.00,CLR,BKN,0.00,WeatherDisplay:10.37,2013-08-03 11:22:00,
2013-08-03 13:27:00,95.4,60.8,29.95,East,90,4.6,4.6,32,0.00,CLR,BKN,0.00,WeatherDisplay:10.37,2013-08-03 11:27:00,
2013-08-03 13:32:00,95.5,61.0,29.94,East,90,5.8,5.8,32,0.00,CLR,BKN,0.00,WeatherDisplay:10.37,2013-08-03 11:32:00,
2013-08-03 13:37:00,95.7,61.1,29.95,NE,45,5.8,5.8,32,0.00,CLR,BKN,0.00,WeatherDisplay:10.37,2013-08-03 11:37:00,
2013-08-03 13:42:00,96.1,62.3,29.94,SW,225,4.6,4.6,33,0.00,CLR,BKN,0.00,WeatherDisplay:10.37,2013-08-03 11:42:00,
2013-08-03 13:47:00,96.4,62.6,29.95,South,180,5.8,5.8,33,0.00,CLR,BKN,0.00,WeatherDisplay:10.37,2013-08-03 11:47:00,
2013-08-03 13:52:00,96.4,61.8,29.94,NW,315,8.1,8.1,32,0.00,CLR,BKN,0.00,WeatherDisplay:10.37,2013-08-03 11:52:00,
2013-08-03 13:57:00,96.1,61.5,29.94,West,270,5.4,5.4,32,0.00,CLR,BKN,0.00,WeatherDisplay:10.37,2013-08-03 11:57:00,
2013-08-03 14:02:00,96.1,61.5,29.95,NW,315,4.6,4.6,32,0.00,CLR,BKN,0.00,WeatherDisplay:10.37,2013-08-03 12:02:00,
2013-08-03 14:07:00,96.1,61.5,29.94,NW,315,4.6,4.6,32,0.00,CLR,BKN,0.00,WeatherDisplay:10.37,2013-08-03 12:07:00,
2013-08-03 14:12:00,96.1,61.5,29.94,SW,225,5.8,5.8,32,0.00,CLR,BKN,0.00,WeatherDisplay:10.37,2013-08-03 12:12:00,
2013-08-03 14:17:00,96.1,60.6,29.94,North,0,6.0,6.0,31,0.00,CLR,BKN,0.00,WeatherDisplay:10.37,2013-08-03 12:17:00,
2013-08-03 14:22:00,96.1,60.6,29.94,NNW,338,4.6,4.6,31,0.00,CLR,BKN,0.00,WeatherDisplay:10.37,2013-08-03 12:22:00,
2013-08-03 14:27:00,96.1,60.6,29.94,NW,315,3.5,3.5,31,0.00,CLR,BKN,0.00,WeatherDisplay:10.37,2013-08-03 12:27:00,
2013-08-03 14:32:00,96.4,61.8,29.94,West,270,8.1,8.1,32,0.00,CLR,BKN,0.00,WeatherDisplay:10.37,2013-08-03 12:32:00,
2013-08-03 14:37:00,96.4,60.9,29.94,SW,225,4.6,4.6,31,0.00,CLR,BKN,0.00,WeatherDisplay:10.37,2013-08-03 12:37:00,
2013-08-03 14:42:00,97.0,60.4,29.94,South,180,6.9,6.9,30,0.00,CLR,BKN,0.00,WeatherDisplay:10.37,2013-08-03 12:42:00,
2013-08-03 14:47:00,97.3,59.8,29.94,SW,225,5.8,5.8,29,0.00,CLR,BKN,0.00,WeatherDisplay:10.37,2013-08-03 12:47:00,
2013-08-03 14:52:00,97.7,60.1,29.93,NW,315,3.5,3.5,29,0.00,CLR,BKN,0.00,WeatherDisplay:10.37,2013-08-03 12:52:00,
2013-08-03 14:58:00,97.7,60.1,29.93,North,0,3.8,3.8,29,0.00,CLR,BKN,0.00,WeatherDisplay:10.37,2013-08-03 12:58:00,
2013-08-03 15:03:00,97.7,59.1,29.93,NE,45,3.8,3.8,28,0.00,CLR,BKN,0.00,WeatherDisplay:10.37,2013-08-03 13:03:00,
2013-08-03 15:08:00,97.7,58.1,29.93,WNW,292,4.6,4.6,27,0.00,CLR,BKN,0.00,WeatherDisplay:10.37,2013-08-03 13:08:00,
2013-08-03 15:13:00,97.9,56.1,29.93,SW,225,5.8,5.8,25,0.00,CLR,BKN,0.00,WeatherDisplay:10.37,2013-08-03 13:13:00,
2013-08-03 15:18:00,98.1,56.2,29.93,NW,315,5.8,5.8,25,0.00,CLR,BKN,0.00,WeatherDisplay:10.37,2013-08-03 13:18:00,
2013-08-03 15:23:00,98.4,56.5,29.93,NW,315,5.8,5.8,25,0.00,CLR,BKN,0.00,WeatherDisplay:10.37,2013-08-03 13:23:00,
2013-08-03 15:28:00,98.4,54.2,29.93,West,270,2.3,2.3,23,0.00,CLR,BKN,0.00,WeatherDisplay:10.37,2013-08-03 13:28:00,
2013-08-03 15:33:00,98.4,54.2,29.93,WNW,292,5.8,5.8,23,0.00,CLR,BKN,0.00,WeatherDisplay:10.37,2013-08-03 13:33:00,
2013-08-03 15:38:00,98.6,55.6,29.93,East,90,5.8,5.8,24,0.00,CLR,BKN,0.00,WeatherDisplay:10.37,2013-08-03 13:38:00,
2013-08-03 15:43:00,98.6,53.2,29.93,South,180,4.6,4.6,22,0.00,CLR,BKN,0.00,WeatherDisplay:10.37,2013-08-03 13:43:00,
2013-08-03 15:48:00,98.8,53.3,29.93,NW,315,5.8,5.8,22,0.00,CLR,BKN,0.00,WeatherDisplay:10.37,2013-08-03 13:48:00,
2013-08-03 15:53:00,98.8,50.7,29.92,West,270,4.6,4.6,20,0.00,CLR,BKN,0.00,WeatherDisplay:10.37,2013-08-03 13:53:00,
2013-08-03 15:58:00,99.0,52.2,29.92,West,270,4.6,4.6,21,0.00,CLR,BKN,0.00,WeatherDisplay:10.37,2013-08-03 13:58:00,
2013-08-03 16:03:00,99.1,53.6,29.92,West,270,4.6,4.6,22,0.00,CLR,BKN,0.00,WeatherDisplay:10.37,2013-08-03 14:03:00,
2013-08-03 16:08:00,99.5,51.3,29.93,NE,45,4.6,4.6,20,0.00,CLR,BKN,0.00,WeatherDisplay:10.37,2013-08-03 14:08:00,
2013-08-03 16:13:00,99.5,51.3,29.92,NW,315,8.1,8.1,20,0.00,CLR,BKN,0.00,WeatherDisplay:10.37,2013-08-03 14:13:00,
2013-08-03 16:18:00,99.3,52.5,29.92,NW,315,6.9,6.9,21,0.00,CLR,BKN,0.00,WeatherDisplay:10.37,2013-08-03 14:18:00,
2013-08-03 16:23:00,99.1,51.0,29.92,NE,45,8.1,8.1,20,0.00,CLR,BKN,0.00,WeatherDisplay:10.37,2013-08-03 14:23:00,
2013-08-03 16:28:00,99.0,52.2,29.92,NE,45,9.2,9.2,21,0.00,CLR,BKN,0.00,WeatherDisplay:10.37,2013-08-03 14:28:00,
2013-08-03 16:33:00,99.1,51.0,29.92,South,180,9.2,9.2,20,0.00,CLR,BKN,0.00,WeatherDisplay:10.37,2013-08-03 14:33:00,
2013-08-03 16:38:00,99.1,52.4,29.92,West,270,5.8,5.8,21,0.00,CLR,BKN,0.00,WeatherDisplay:10.37,2013-08-03 14:38:00,
2013-08-03 16:43:00,99.1,52.4,29.91,SW,225,5.8,5.8,21,0.00,CLR,BKN,0.00,WeatherDisplay:10.37,2013-08-03 14:43:00,
2013-08-03 16:48:00,99.1,52.4,29.92,West,270,5.8,5.8,21,0.00,CLR,BKN,0.00,WeatherDisplay:10.37,2013-08-03 14:48:00,
2013-08-03 16:53:00,98.6,53.2,29.92,NW,315,5.8,5.8,22,0.00,CLR,BKN,0.00,WeatherDisplay:10.37,2013-08-03 14:53:00,
2013-08-03 16:58:00,98.4,53.0,29.92,North,0,8.1,8.1,22,0.00,CLR,BKN,0.00,WeatherDisplay:10.37,2013-08-03 14:58:00,
2013-08-03 17:03:00,98.6,51.9,29.92,NW,315,5.8,5.8,21,0.00,CLR,BKN,0.00,WeatherDisplay:10.37,2013-08-03 15:03:00,
2013-08-03 17:08:00,98.6,51.9,29.91,NW,315,5.8,5.8,21,0.00,CLR,BKN,0.00,WeatherDisplay:10.37,2013-08-03 15:08:00,
2013-08-03 17:13:00,98.6,53.2,29.92,West,270,5.8,5.8,22,0.00,CLR,BKN,0.00,WeatherDisplay:10.37,2013-08-03 15:13:00,
2013-08-03 17:18:00,98.6,53.2,29.92,West,270,5.8,5.8,22,0.00,CLR,BKN,0.00,WeatherDisplay:10.37,2013-08-03 15:18:00,
2013-08-03 17:23:00,98.4,54.2,29.92,West,270,4.6,4.6,23,0.00,CLR,BKN,0.00,WeatherDisplay:10.37,2013-08-03 15:23:00,
2013-08-03 17:28:00,98.4,54.2,29.91,West,270,3.5,3.5,23,0.00,CLR,BKN,0.00,WeatherDisplay:10.37,2013-08-03 15:28:00,
2013-08-03 17:33:00,98.4,53.0,29.92,NW,315,3.5,3.5,22,0.00,CLR,BKN,0.00,WeatherDisplay:10.37,2013-08-03 15:33:00,
2013-08-03 17:38:00,98.2,54.1,29.91,West,270,3.5,3.5,23,0.00,CLR,BKN,0.00,WeatherDisplay:10.37,2013-08-03 15:38:00,
2013-08-03 17:43:00,98.4,55.4,29.91,NW,315,3.5,3.5,24,0.00,CLR,BKN,0.00,WeatherDisplay:10.37,2013-08-03 15:43:00,
2013-08-03 17:48:00,98.6,53.2,29.91,East,90,3.5,3.5,22,0.00,CLR,BKN,0.00,WeatherDisplay:10.37,2013-08-03 15:48:00,
2013-08-03 17:53:00,98.6,54.4,29.91,North,0,4.5,4.5,23,0.00,CLR,BKN,0.00,WeatherDisplay:10.37,2013-08-03 15:53:00,
2013-08-03 17:58:00,98.2,52.9,29.91,North,0,3.5,3.5,22,0.00,CLR,BKN,0.00,WeatherDisplay:10.37,2013-08-03 15:58:00,
2013-08-03 18:03:00,98.2,54.1,29.91,SW,225,1.2,0.0,23,0.00,CLR,BKN,0.00,WeatherDisplay:10.37,2013-08-03 16:03:00,
2013-08-03 18:08:00,98.2,54.1,29.91,West,270,2.3,2.3,23,0.00,CLR,BKN,0.00,WeatherDisplay:10.37,2013-08-03 16:08:00,
2013-08-03 18:13:00,98.2,55.3,29.91,SW,225,3.5,3.5,24,0.00,CLR,BKN,0.00,WeatherDisplay:10.37,2013-08-03 16:13:00,
2013-08-03 18:18:00,98.1,55.1,29.91,West,270,3.5,3.5,24,0.00,CLR,BKN,0.00,WeatherDisplay:10.37,2013-08-03 16:18:00,
2013-08-03 18:23:00,97.9,55.0,29.91,West,270,3.5,3.5,24,0.00,CLR,BKN,0.00,WeatherDisplay:10.37,2013-08-03 16:23:00,
2013-08-03 18:28:00,97.9,55.0,29.91,NW,315,3.5,3.5,24,0.00,CLR,BKN,0.00,WeatherDisplay:10.37,2013-08-03 16:28:00,
2013-08-03 18:33:00,97.7,53.6,29.91,West,270,1.2,0.0,23,0.00,CLR,BKN,0.00,WeatherDisplay:10.37,2013-08-03 16:33:00,
2013-08-03 18:38:00,97.7,54.8,29.91,West,270,2.3,2.3,24,0.00,CLR,BKN,0.00,WeatherDisplay:10.37,2013-08-03 16:38:00,
2013-08-03 18:43:00,97.7,55.9,29.91,NW,315,3.5,3.5,25,0.00,CLR,BKN,0.00,WeatherDisplay:10.37,2013-08-03 16:43:00,
2013-08-03 18:48:00,97.3,57.8,29.91,SSW,202,4.6,4.6,27,0.00,CLR,BKN,0.00,WeatherDisplay:10.37,2013-08-03 16:48:00,
2013-08-03 18:53:00,96.3,59.8,29.91,SW,225,3.5,3.5,30,0.00,CLR,BKN,0.00,WeatherDisplay:10.37,2013-08-03 16:53:00,
2013-08-03 18:59:00,95.4,59.0,29.91,South,180,3.5,3.5,30,0.00,CLR,BKN,0.00,WeatherDisplay:10.37,2013-08-03 16:59:00,
2013-08-03 19:04:00,95.0,58.7,29.91,SW,225,3.5,3.5,30,0.00,CLR,BKN,0.00,WeatherDisplay:10.37,2013-08-03 17:04:00,
2013-08-03 19:09:00,94.3,59.0,29.91,South,180,3.8,3.8,31,0.00,CLR,BKN,0.00,WeatherDisplay:10.37,2013-08-03 17:09:00,
2013-08-03 19:14:00,93.7,59.4,29.91,WSW,248,3.5,3.5,32,0.00,CLR,BKN,0.00,WeatherDisplay:10.37,2013-08-03 17:14:00,
2013-08-03 19:19:00,93.4,59.1,29.91,SW,225,3.5,3.5,32,0.00,CLR,BKN,0.00,WeatherDisplay:10.37,2013-08-03 17:19:00,
2013-08-03 19:24:00,92.8,60.3,29.91,SW,225,3.1,3.1,34,0.00,CLR,BKN,0.00,WeatherDisplay:10.37,2013-08-03 17:24:00,
2013-08-03 19:29:00,92.3,59.9,29.91,SW,225,2.3,2.3,34,0.00,CLR,BKN,0.00,WeatherDisplay:10.37,2013-08-03 17:29:00,
2013-08-03 19:34:00,91.8,60.2,29.91,SW,225,3.5,3.5,35,0.00,CLR,BKN,0.00,WeatherDisplay:10.37,2013-08-03 17:34:00,
2013-08-03 19:40:00,91.2,59.7,29.91,SSW,198,1.0,3.0,35,0.00,CLR,BKN,0.00,WeatherDisplay:10.37,2013-08-03 17:40:00,
2013-08-03 19:45:00,90.5,59.9,29.91,South,180,3.5,3.5,36,0.00,CLR,BKN,0.00,WeatherDisplay:10.37,2013-08-03 17:45:00,
2013-08-03 19:50:00,90.0,60.2,29.91,South,180,1.2,0.0,37,0.00,CLR,BKN,0.00,WeatherDisplay:10.37,2013-08-03 17:50:00,
2013-08-03 19:55:00,89.2,61.8,29.91,SW,225,2.3,2.3,40,0.00,CLR,BKN,0.00,WeatherDisplay:10.37,2013-08-03 17:55:00,
2013-08-03 20:00:00,88.7,61.3,29.91,SW,225,2.3,2.3,40,0.00,CLR,BKN,0.00,WeatherDisplay:10.37,2013-08-03 18:00:00,
2013-08-03 20:05:00,88.7,61.3,29.91,SW,225,2.3,2.3,40,0.00,CLR,BKN,0.00,WeatherDisplay:10.37,2013-08-03 18:05:00,
2013-08-03 20:10:00,87.6,62.4,29.91,SW,225,2.3,0.0,43,0.00,CLR,BKN,0.00,WeatherDisplay:10.37,2013-08-03 18:10:00,
2013-08-03 20:15:00,86.9,62.4,29.91,South,180,1.6,1.6,44,0.00,CLR,BKN,0.00,WeatherDisplay:10.37,2013-08-03 18:15:00,
2013-08-03 20:20:00,86.5,62.7,29.91,SW,225,2.3,0.0,45,0.00,CLR,BKN,0.00,WeatherDisplay:10.37,2013-08-03 18:20:00,
2013-08-03 20:25:00,86.0,62.2,29.92,South,180,3.5,3.5,45,0.00,CLR,BKN,0.00,WeatherDisplay:10.37,2013-08-03 18:25:00,
2013-08-03 20:30:00,85.5,62.9,29.92,South,180,2.3,2.3,47,0.00,CLR,BKN,0.00,WeatherDisplay:10.37,2013-08-03 18:30:00,
2013-08-03 20:35:00,85.1,62.0,29.92,South,180,1.2,0.0,46,0.00,CLR,BKN,0.00,WeatherDisplay:10.37,2013-08-03 18:35:00,
2013-08-03 20:40:00,84.6,62.7,29.92,South,180,2.3,2.3,48,0.00,CLR,BKN,0.00,WeatherDisplay:10.37,2013-08-03 18:40:00,
2013-08-03 20:45:00,84.4,62.5,29.92,SE,135,2.3,2.3,48,0.00,CLR,BKN,0.00,WeatherDisplay:10.37,2013-08-03 18:45:00,
2013-08-03 20:50:00,83.7,62.5,29.92,SE,135,1.2,0.0,49,0.00,CLR,BKN,0.00,WeatherDisplay:10.37,2013-08-03 18:50:00,
2013-08-03 20:55:00,83.1,62.6,29.93,East,90,2.3,2.3,50,0.00,CLR,BKN,0.00,WeatherDisplay:10.37,2013-08-03 18:55:00,
2013-08-03 21:00:00,82.9,63.0,29.93,East,90,1.2,0.0,51,0.00,CLR,BKN,0.00,WeatherDisplay:10.37,2013-08-03 19:00:00,
2013-08-03 21:05:00,82.4,61.9,29.93,East,90,2.3,2.3,50,0.00,CLR,BKN,0.00,WeatherDisplay:10.37,2013-08-03 19:05:00,
2013-08-03 21:10:00,82.2,61.7,29.93,SE,135,2.3,2.3,50,0.00,CLR,BKN,0.00,WeatherDisplay:10.37,2013-08-03 19:10:00,
2013-08-03 21:15:00,82.0,62.1,29.92,SSE,158,2.3,2.3,51,0.00,CLR,BKN,0.00,WeatherDisplay:10.37,2013-08-03 19:15:00,
2013-08-03 21:20:00,81.5,61.6,29.93,SE,135,1.2,0.0,51,0.00,CLR,BKN,0.00,WeatherDisplay:10.37,2013-08-03 19:20:00,
2013-08-03 21:25:00,81.1,61.3,29.93,South,180,2.2,2.2,51,0.00,CLR,BKN,0.00,WeatherDisplay:10.37,2013-08-03 19:25:00,
2013-08-03 21:30:00,80.8,62.1,29.93,South,180,2.3,2.3,53,0.00,CLR,BKN,0.00,WeatherDisplay:10.37,2013-08-03 19:30:00,
2013-08-03 21:35:00,80.6,61.9,29.93,SW,225,1.6,1.6,53,0.00,CLR,BKN,0.00,WeatherDisplay:10.37,2013-08-03 19:35:00,
2013-08-03 21:40:00,80.2,62.1,29.93,NE,45,3.5,3.5,54,0.00,CLR,BKN,0.00,WeatherDisplay:10.37,2013-08-03 19:40:00,
2013-08-03 21:46:00,79.9,62.3,29.94,East,90,2.3,2.3,55,0.00,CLR,BKN,0.00,WeatherDisplay:10.37,2013-08-03 19:46:00,
2013-08-03 21:51:00,79.7,62.1,29.93,East,90,2.3,0.0,55,0.00,CLR,BKN,0.00,WeatherDisplay:10.37,2013-08-03 19:51:00,
2013-08-03 21:56:00,79.3,61.2,29.93,East,90,2.2,2.2,54,0.00,CLR,BKN,0.00,WeatherDisplay:10.37,2013-08-03 19:56:00,
2013-08-03 22:02:00,79.2,61.1,29.94,East,90,1.2,0.0,54,0.00,CLR,BKN,0.00,WeatherDisplay:10.37,2013-08-03 20:02:00,
2013-08-03 22:07:00,78.8,61.3,29.93,East,90,1.6,0.0,55,0.00,CLR,BKN,0.00,WeatherDisplay:10.37,2013-08-03 20:07:00,
2013-08-03 22:12:00,78.4,60.9,29.94,East,90,1.2,0.0,55,0.00,CLR,BKN,0.00,WeatherDisplay:10.37,2013-08-03 20:12:00,
2013-08-03 22:17:00,78.3,61.8,29.93,East,90,1.2,0.0,57,0.00,CLR,BKN,0.00,WeatherDisplay:10.37,2013-08-03 20:17:00,
2013-08-03 22:22:00,78.1,62.1,29.94,East,90,1.2,0.0,58,0.00,CLR,BKN,0.00,WeatherDisplay:10.37,2013-08-03 20:22:00,
2013-08-03 22:27:00,77.7,61.8,29.94,East,90,0.0,0.0,58,0.00,CLR,BKN,0.00,WeatherDisplay:10.37,2013-08-03 20:27:00,
2013-08-03 22:32:00,77.4,60.4,29.94,East,90,1.2,0.0,56,0.00,CLR,BKN,0.00,WeatherDisplay:10.37,2013-08-03 20:32:00,
2013-08-03 22:37:00,77.2,60.3,29.94,East,90,1.6,1.6,56,0.00,CLR,BKN,0.00,WeatherDisplay:10.37,2013-08-03 20:37:00,
2013-08-03 22:42:00,76.8,60.9,29.94,East,90,1.6,1.6,58,0.00,CLR,BKN,0.00,WeatherDisplay:10.37,2013-08-03 20:42:00,
2013-08-03 22:47:00,76.6,60.8,29.94,East,90,1.2,1.2,58,0.00,CLR,BKN,0.00,WeatherDisplay:10.37,2013-08-03 20:47:00,
2013-08-03 22:52:00,76.5,60.6,29.94,East,90,1.2,0.0,58,0.00,CLR,BKN,0.00,WeatherDisplay:10.37,2013-08-03 20:52:00,
2013-08-03 22:57:00,76.1,59.8,29.94,East,90,1.2,0.0,57,0.00,CLR,BKN,0.00,WeatherDisplay:10.37,2013-08-03 20:57:00,
2013-08-03 23:02:00,75.9,59.6,29.94,East,90,0.0,0.0,57,0.00,CLR,BKN,0.00,WeatherDisplay:10.37,2013-08-03 21:02:00,
2013-08-03 23:07:00,75.7,59.9,29.95,East,90,2.2,2.2,58,0.00,CLR,BKN,0.00,WeatherDisplay:10.37,2013-08-03 21:07:00,
2013-08-03 23:12:00,75.6,59.7,29.95,NW,315,3.1,3.1,58,0.00,CLR,BKN,0.00,WeatherDisplay:10.37,2013-08-03 21:12:00,
2013-08-03 23:17:00,75.4,61.0,29.95,NW,315,3.5,0.0,61,0.00,CLR,BKN,0.00,WeatherDisplay:10.37,2013-08-03 21:17:00,
2013-08-03 23:22:00,75.4,61.5,29.95,West,270,1.2,0.0,62,0.00,CLR,BKN,0.00,WeatherDisplay:10.37,2013-08-03 21:22:00,
2013-08-03 23:27:00,75.2,61.3,29.95,North,0,2.3,2.3,62,0.00,CLR,BKN,0.00,WeatherDisplay:10.37,2013-08-03 21:27:00,
2013-08-03 23:32:00,75.0,62.5,29.95,West,270,3.5,3.5,65,0.00,CLR,BKN,0.00,WeatherDisplay:10.37,2013-08-03 21:32:00,
2013-08-03 23:37:00,75.0,62.5,29.95,NNW,338,6.0,6.0,65,0.00,CLR,BKN,0.00,WeatherDisplay:10.37,2013-08-03 21:37:00,
2013-08-03 23:42:00,75.4,62.4,29.95,NE,45,4.6,4.6,64,0.00,CLR,BKN,0.00,WeatherDisplay:10.37,2013-08-03 21:42:00,
2013-08-03 23:47:00,75.4,62.8,29.95,NE,45,3.5,3.5,65,0.00,CLR,BKN,0.00,WeatherDisplay:10.37,2013-08-03 21:47:00,
2013-08-03 23:52:00,75.0,63.3,29.95,NNE,22,3.8,3.8,67,0.00,CLR,BKN,0.00,WeatherDisplay:10.37,2013-08-03 21:52:00,
2013-08-03 23:57:00,74.7,63.4,29.96,SE,135,5.8,5.8,68,0.00,CLR,BKN,0.00,WeatherDisplay:10.37,2013-08-03 21:57:00,